Terminal Aerodrome Forecast
Issued by NWS

Home | Current Version | Previous Version | Text Only | Print | Product List | Glossary On
Versions: 1 2 3 4 5 6 7 8 9 10 11 12 13 14 15 16 17 18 19 20
000
FTUS46 KSGX 040715 AAA
TAFSNA
TAF AMD
KSNA 040715Z 0407/0506 VRB03KT P6SM BKN025
      TEMPO 0407/0409 SCT025
     FM041600 VRB04KT P6SM BKN030
     FM041900 21010KT P6SM SCT035
     FM050200 VRB05KT P6SM BKN030=

USA.gov is the U.S. government's official web portal to all federal, state and local government web resources and services.